Time;durP1;ratioP1;P1;durP2;ratioP2;P2;SDS_P1;SDS_P2;PMS_P1;PMS_P2;Temp;Humidity;BMP_temperature;BMP_pressure;BME280_temperature;BME280_humidity;BME280_pressure;Samples;Min_cycle;Max_cycle;Signal;HPM_P1;HPM_P2
2023/04/08 00:00:35;;;;;;;19.70;13.93;;;7.90;99.90;;;;;;5013833;28;20109;-70
2023/04/08 00:03:01;;;;;;;22.70;14.13;;;7.90;99.90;;;;;;5010154;28;20033;-71
2023/04/08 00:05:27;;;;;;;21.27;15.63;;;7.80;99.90;;;;;;5015202;28;20025;-69
2023/04/08 00:07:52;;;;;;;19.73;14.48;;;7.80;99.90;;;;;;5014173;28;20030;-71
2023/04/08 00:10:18;;;;;;;20.13;14.48;;;7.80;99.90;;;;;;5016021;28;20477;-70
2023/04/08 00:12:44;;;;;;;19.67;14.55;;;7.80;99.90;;;;;;5015777;28;20053;-71
2023/04/08 00:15:10;;;;;;;20.60;14.80;;;7.80;99.90;;;;;;5017253;28;20026;-71
2023/04/08 00:17:35;;;;;;;20.30;14.38;;;7.80;99.90;;;;;;5013911;28;20041;-70
2023/04/08 00:20:02;;;;;;;21.98;14.57;;;7.90;99.90;;;;;;5010528;28;20022;-72
2023/04/08 00:22:27;;;;;;;19.42;14.05;;;8.00;99.90;;;;;;4999948;28;20372;-69
2023/04/08 00:24:53;;;;;;;21.95;14.40;;;7.90;99.90;;;;;;5009274;28;20036;-71
2023/04/08 00:27:18;;;;;;;21.15;14.70;;;7.90;99.90;;;;;;4994145;28;20034;-70
2023/04/08 00:29:44;;;;;;;19.25;14.32;;;7.90;99.90;;;;;;4999472;28;20423;-71
2023/04/08 00:32:09;;;;;;;20.92;14.18;;;7.80;99.90;;;;;;4989894;28;20022;-71
2023/04/08 00:34:36;;;;;;;20.27;14.18;;;7.80;99.90;;;;;;5013028;28;20101;-71
2023/04/08 00:37:02;;;;;;;21.05;15.25;;;7.70;99.90;;;;;;5002322;28;20030;-71
2023/04/08 00:39:27;;;;;;;21.48;14.40;;;7.70;99.90;;;;;;4995765;28;20471;-69
2023/04/08 00:41:53;;;;;;;21.33;14.70;;;7.70;99.90;;;;;;5007880;28;20049;-71
2023/04/08 00:44:19;;;;;;;20.67;14.80;;;7.60;99.90;;;;;;5013560;28;20484;-71
2023/04/08 00:46:45;;;;;;;20.95;14.52;;;7.60;99.90;;;;;;5012093;28;20072;-71
2023/04/08 00:49:11;;;;;;;18.10;13.15;;;7.60;99.90;;;;;;5005111;28;20387;-71
2023/04/08 00:51:36;;;;;;;20.85;14.38;;;7.60;99.90;;;;;;5010705;28;20038;-71
2023/04/08 00:54:06;;;;;;;17.83;13.55;;;7.70;99.90;;;;;;5004336;28;20036;-71
2023/04/08 00:56:33;;;;;;;19.05;13.68;;;7.80;99.90;;;;;;5003608;28;20406;-70
2023/04/08 00:59:00;;;;;;;19.70;13.77;;;7.70;99.90;;;;;;5006069;28;20115;-69
2023/04/08 01:01:28;;;;;;;20.60;14.65;;;7.70;99.90;;;;;;5002759;28;20079;-71
2023/04/08 01:04:12;;;;;;;19.67;13.43;;;7.80;99.90;;;;;;5016651;28;20053;-71
2023/04/08 01:06:47;;;;;;;20.27;14.00;;;7.80;99.90;;;;;;5011455;28;20142;-70
2023/04/08 01:09:16;;;;;;;18.60;13.95;;;7.80;99.90;;;;;;5010279;28;20482;-71
2023/04/08 01:11:43;;;;;;;20.40;13.60;;;7.80;99.90;;;;;;5005210;28;20053;-71
2023/04/08 01:14:14;;;;;;;20.27;13.52;;;7.80;99.90;;;;;;5013717;28;20390;-72
2023/04/08 01:16:41;;;;;;;18.65;13.02;;;7.80;99.90;;;;;;5012892;28;20045;-71
2023/04/08 01:19:09;;;;;;;21.90;13.98;;;7.80;99.90;;;;;;5013779;28;20041;-69
2023/04/08 01:21:36;;;;;;;19.58;13.85;;;7.80;99.90;;;;;;5012050;28;20054;-70
2023/04/08 01:24:28;;;;;;;20.23;13.32;;;7.80;99.90;;;;;;5013422;28;20025;-71
2023/04/08 01:26:58;;;;;;;17.95;14.23;;;7.70;99.90;;;;;;4995169;28;20042;-70
2023/04/08 01:29:25;;;;;;;;;;;7.60;99.90;;;;;;5009471;28;20076;-71
2023/04/08 01:31:53;;;;;;;17.67;13.02;;;7.70;99.90;;;;;;5012104;28;19914;-71
2023/04/08 01:34:20;;;;;;;19.92;13.60;;;7.60;99.90;;;;;;5012852;28;20033;-71
2023/04/08 01:36:47;;;;;;;18.08;13.43;;;7.60;99.90;;;;;;5011850;28;20034;-71
2023/04/08 01:39:15;;;;;;;16.88;12.90;;;7.70;99.90;;;;;;5013095;28;20033;-71
2023/04/08 01:41:41;;;;;;;17.70;12.27;;;7.60;99.90;;;;;;5010178;28;20482;-70
2023/04/08 01:44:07;;;;;;;17.58;13.13;;;7.50;99.90;;;;;;5012948;28;20030;-72
2023/04/08 01:46:34;;;;;;;16.23;13.02;;;7.50;99.90;;;;;;5008655;28;20049;-71
2023/04/08 01:49:00;;;;;;;17.35;12.73;;;7.60;99.90;;;;;;5007480;28;20061;-71
2023/04/08 01:51:27;;;;;;;18.10;13.30;;;7.60;99.90;;;;;;5012627;28;20034;-70
2023/04/08 01:53:52;;;;;;;17.42;13.20;;;7.70;99.90;;;;;;5011838;28;20046;-71
2023/04/08 01:56:21;;;;;;;20.17;14.18;;;7.60;99.90;;;;;;5012051;28;20437;-72
2023/04/08 01:58:51;;;;;;;19.17;14.55;;;7.60;99.90;;;;;;5011544;28;20241;-70
2023/04/08 02:01:21;;;;;;;21.25;14.00;;;7.60;99.90;;;;;;5009155;28;20080;-71
2023/04/08 02:03:50;;;;;;;21.92;14.88;;;7.50;99.90;;;;;;5008711;28;20137;-71
2023/04/08 02:06:16;;;;;;;19.77;15.13;;;7.50;99.90;;;;;;5012175;28;20132;-71
2023/04/08 02:08:42;;;;;;;20.48;14.45;;;7.50;99.90;;;;;;5011014;28;20112;-71
2023/04/08 02:11:07;;;;;;;22.42;15.13;;;7.40;99.90;;;;;;5011591;28;20481;-72
2023/04/08 02:13:33;;;;;;;21.30;15.55;;;7.30;99.90;;;;;;5011581;28;20053;-73
2023/04/08 02:16:23;;;;;;;21.50;16.00;;;7.40;99.90;;;;;;5011798;28;20034;-72
2023/04/08 02:19:12;;;;;;;22.60;16.00;;;7.40;99.90;;;;;;5006470;28;20076;-72
2023/04/08 02:21:46;;;;;;;21.50;14.77;;;7.30;99.90;;;;;;5011331;28;20422;-71
2023/04/08 02:24:13;;;;;;;22.35;15.10;;;7.30;99.90;;;;;;5012247;28;20058;-71
2023/04/08 02:26:41;;;;;;;19.73;14.43;;;7.30;99.90;;;;;;5010909;28;20030;-71
2023/04/08 02:29:11;;;;;;;20.27;14.25;;;7.30;99.90;;;;;;5012000;28;20030;-71
2023/04/08 02:31:40;;;;;;;20.02;15.20;;;7.20;99.90;;;;;;5011212;28;20061;-71
2023/04/08 02:34:09;;;;;;;23.38;15.93;;;7.20;99.90;;;;;;5012058;28;20049;-71
2023/04/08 02:36:35;;;;;;;19.20;14.10;;;7.20;99.90;;;;;;5000414;28;20441;-70
2023/04/08 02:39:01;;;;;;;26.10;17.77;;;7.20;99.90;;;;;;4994633;28;20105;-71
2023/04/08 02:41:29;;;;;;;22.80;15.90;;;7.20;99.90;;;;;;5010425;28;20054;-69
2023/04/08 02:43:54;;;;;;;23.13;16.40;;;7.20;99.90;;;;;;5012157;28;20022;-72
2023/04/08 02:46:20;;;;;;;23.55;16.42;;;7.20;99.90;;;;;;5012217;28;20175;-71
2023/04/08 02:48:46;;;;;;;26.92;16.48;;;7.20;99.90;;;;;;5006958;28;20708;-72
2023/04/08 02:51:11;;;;;;;24.88;16.98;;;7.20;99.90;;;;;;5012079;28;20033;-72
2023/04/08 02:53:37;;;;;;;24.70;16.98;;;7.20;99.90;;;;;;5008234;28;20036;-71
2023/04/08 02:56:03;;;;;;;25.67;17.27;;;7.20;99.90;;;;;;5010011;28;20080;-71
2023/04/08 02:58:28;;;;;;;28.05;18.27;;;7.20;99.90;;;;;;5010968;28;20030;-69
2023/04/08 03:00:54;;;;;;;27.15;16.88;;;7.20;99.90;;;;;;5011143;28;20029;-70
2023/04/08 03:03:26;;;;;;;26.75;17.02;;;7.10;99.90;;;;;;5011760;28;20383;-71
2023/04/08 03:05:52;;;;;;;24.48;17.00;;;7.20;99.90;;;;;;5010278;28;20029;-72
2023/04/08 03:08:18;;;;;;;27.50;17.17;;;7.10;99.90;;;;;;5011560;28;20030;-71
2023/04/08 03:10:44;;;;;;;27.10;17.30;;;7.10;99.90;;;;;;4987438;28;20041;-72
2023/04/08 03:13:09;;;;;;;29.92;17.95;;;7.00;99.90;;;;;;5011184;28;20038;-71
2023/04/08 03:15:35;;;;;;;28.33;17.70;;;7.00;99.90;;;;;;5010314;28;20030;-71
2023/04/08 03:18:01;;;;;;;30.40;17.50;;;7.00;99.90;;;;;;5011293;28;20109;-72
2023/04/08 03:20:26;;;;;;;27.67;16.67;;;7.00;99.90;;;;;;5011272;28;20030;-70
2023/04/08 03:22:52;;;;;;;28.23;16.08;;;7.00;99.90;;;;;;5010642;28;20065;-73
2023/04/08 03:25:17;;;;;;;27.15;16.35;;;7.00;99.90;;;;;;5013650;28;20385;-71
2023/04/08 03:27:43;;;;;;;32.28;17.10;;;7.00;99.90;;;;;;5010271;28;20041;-71
2023/04/08 03:30:09;;;;;;;32.17;18.55;;;7.00;99.90;;;;;;5015162;28;20034;-71
2023/04/08 03:32:35;;;;;;;26.70;16.50;;;7.00;99.90;;;;;;5014492;28;20457;-70
2023/04/08 03:35:00;;;;;;;30.38;17.52;;;7.10;99.90;;;;;;5014859;28;20037;-71
2023/04/08 03:37:26;;;;;;;29.88;17.60;;;7.00;99.90;;;;;;5014897;28;20046;-69
2023/04/08 03:39:53;;;;;;;32.67;18.60;;;7.00;99.90;;;;;;5014907;28;20033;-70
2023/04/08 03:42:19;;;;;;;28.63;16.38;;;7.10;99.90;;;;;;5014543;28;20037;-70
2023/04/08 03:44:44;;;;;;;28.33;17.67;;;7.20;99.90;;;;;;5009713;28;20454;-70
2023/04/08 03:47:10;;;;;;;27.30;15.95;;;7.20;99.90;;;;;;5014565;28;20088;-72
2023/04/08 03:49:35;;;;;;;25.27;17.10;;;7.10;99.90;;;;;;5014324;28;20116;-71
2023/04/08 03:52:01;;;;;;;28.52;16.35;;;7.10;99.90;;;;;;5014688;28;20030;-72
2023/04/08 03:54:27;;;;;;;28.73;16.67;;;7.00;99.90;;;;;;5014954;28;20108;-70
2023/04/08 03:56:52;;;;;;;28.35;16.00;;;7.00;99.90;;;;;;5013946;28;20038;-73
2023/04/08 03:59:18;;;;;;;23.50;16.08;;;7.10;99.90;;;;;;5015175;28;20034;-72
2023/04/08 04:01:44;;;;;;;32.33;17.27;;;7.10;99.90;;;;;;5011775;28;20064;-70
2023/04/08 04:04:09;;;;;;;27.23;15.77;;;7.10;99.90;;;;;;5016404;28;20060;-72
2023/04/08 04:06:36;;;;;;;29.08;17.23;;;7.10;99.90;;;;;;5014721;28;20040;-70
2023/04/08 04:09:02;;;;;;;27.25;16.80;;;7.00;99.90;;;;;;5013060;28;20472;-71
2023/04/08 04:11:27;;;;;;;28.02;17.48;;;7.10;99.90;;;;;;5013587;28;20125;-69
2023/04/08 04:13:53;;;;;;;26.92;16.45;;;7.10;99.90;;;;;;5014570;28;20026;-71
2023/04/08 04:16:19;;;;;;;27.45;16.50;;;7.10;99.90;;;;;;5013990;28;20030;-71
2023/04/08 04:18:44;;;;;;;31.85;16.23;;;7.00;99.90;;;;;;5008345;28;20470;-71
2023/04/08 04:21:11;;;;;;;26.65;17.10;;;7.10;99.90;;;;;;5014029;28;20022;-71
2023/04/08 04:23:36;;;;;;;30.23;17.60;;;7.10;99.90;;;;;;5013778;28;20422;-71
2023/04/08 04:26:08;;;;;;;31.25;17.77;;;7.10;99.90;;;;;;5006077;28;20080;-71
2023/04/08 04:28:34;;;;;;;29.33;17.33;;;7.10;99.90;;;;;;5013780;28;20026;-71
2023/04/08 04:30:59;;;;;;;30.10;18.02;;;7.00;99.90;;;;;;5013941;28;20473;-72
2023/04/08 04:33:25;;;;;;;30.48;18.58;;;7.00;99.90;;;;;;5012253;28;20060;-70
2023/04/08 04:35:50;;;;;;;35.90;20.65;;;6.90;99.90;;;;;;5008761;28;20096;-71
2023/04/08 04:38:16;;;;;;;31.45;18.90;;;6.90;99.90;;;;;;5013956;28;20038;-72
2023/04/08 04:40:43;;;;;;;31.63;19.30;;;6.80;99.90;;;;;;5012505;28;20407;-71
2023/04/08 04:43:09;;;;;;;33.00;19.17;;;6.70;99.90;;;;;;5013858;28;20026;-71
2023/04/08 04:45:34;;;;;;;31.02;19.48;;;6.70;99.90;;;;;;5012501;28;20037;-72
2023/04/08 04:48:01;;;;;;;32.13;20.23;;;6.70;99.90;;;;;;5013730;28;20030;-71
2023/04/08 04:50:26;;;;;;;30.85;19.50;;;6.70;99.90;;;;;;5004840;28;20033;-71
2023/04/08 04:52:52;;;;;;;36.55;20.02;;;6.60;99.90;;;;;;4975114;28;20026;-71
2023/04/08 04:55:17;;;;;;;37.60;20.30;;;6.50;99.90;;;;;;5012418;28;20475;-70
2023/04/08 04:57:43;;;;;;;34.83;20.38;;;6.40;99.90;;;;;;5012601;28;20034;-71
2023/04/08 05:00:09;;;;;;;33.72;20.05;;;6.40;99.90;;;;;;5013791;28;20405;-71
2023/04/08 05:02:35;;;;;;;36.20;21.52;;;6.40;99.90;;;;;;5012060;28;20049;-72
2023/04/08 05:05:01;;;;;;;38.13;21.92;;;6.30;99.90;;;;;;5013658;28;20374;-70
2023/04/08 05:07:26;;;;;;;36.45;22.08;;;6.20;99.90;;;;;;5013183;28;20041;-72
2023/04/08 05:09:53;;;;;;;39.00;22.67;;;6.10;99.90;;;;;;5009230;28;20526;-68
2023/04/08 05:12:21;;;;;;;37.83;22.33;;;6.20;99.90;;;;;;5012868;28;20430;-69
2023/04/08 05:14:47;;;;;;;40.88;22.67;;;6.10;99.90;;;;;;5005810;28;20514;-68
2023/04/08 05:17:13;;;;;;;37.88;22.48;;;6.10;99.90;;;;;;5002705;28;20077;-67
2023/04/08 05:19:38;;;;;;;41.13;22.98;;;6.10;99.90;;;;;;4988861;28;20027;-67
2023/04/08 05:22:04;;;;;;;38.25;22.73;;;6.00;99.90;;;;;;5001841;28;20084;-67
2023/04/08 05:24:30;;;;;;;41.55;23.70;;;6.20;99.90;;;;;;5003905;28;20064;-67
2023/04/08 05:26:56;;;;;;;42.08;25.23;;;6.20;99.90;;;;;;5002378;28;20030;-67
2023/04/08 05:29:22;;;;;;;46.08;24.90;;;6.20;99.90;;;;;;5007859;28;20033;-68
2023/04/08 05:31:48;;;;;;;43.08;24.90;;;6.10;99.90;;;;;;5006192;28;20118;-66
2023/04/08 05:34:14;;;;;;;39.60;23.58;;;6.10;99.90;;;;;;5011167;28;20539;-66
2023/04/08 05:36:40;;;;;;;40.10;24.40;;;6.10;99.90;;;;;;5008176;28;20521;-68
2023/04/08 05:39:06;;;;;;;38.28;23.77;;;6.10;99.90;;;;;;5012388;28;20037;-69
2023/04/08 05:41:31;;;;;;;41.17;24.33;;;6.10;99.90;;;;;;4992645;28;20827;-70
2023/04/08 05:43:57;;;;;;;39.75;23.65;;;6.20;99.90;;;;;;5012239;28;20030;-71
2023/04/08 05:46:22;;;;;;;41.85;25.52;;;6.20;99.90;;;;;;5010443;28;20038;-70
2023/04/08 05:48:48;;;;;;;42.80;24.98;;;6.30;99.90;;;;;;5005842;28;20028;-73
2023/04/08 05:51:14;;;;;;;34.78;22.40;;;6.40;99.90;;;;;;5008537;28;20052;-71
2023/04/08 05:53:40;;;;;;;36.17;23.08;;;6.50;99.90;;;;;;5011115;28;20045;-70
2023/04/08 05:56:06;;;;;;;39.50;23.70;;;6.60;99.90;;;;;;5007532;28;20042;-70
2023/04/08 05:58:32;;;;;;;36.15;21.52;;;6.70;99.90;;;;;;5010625;28;20032;-70
2023/04/08 06:00:57;;;;;;;33.80;20.67;;;6.90;99.90;;;;;;5008343;28;20029;-71
2023/04/08 06:03:23;;;;;;;35.47;21.83;;;7.00;99.90;;;;;;5011996;28;20133;-73
2023/04/08 06:05:49;;;;;;;38.42;22.38;;;6.90;99.90;;;;;;5003840;28;20035;-70
2023/04/08 06:08:15;;;;;;;38.78;23.35;;;7.00;99.90;;;;;;5010317;28;20029;-72
2023/04/08 06:10:47;;;;;;;34.10;21.52;;;7.00;99.90;;;;;;5005880;28;20034;-71
2023/04/08 06:13:13;;;;;;;33.90;21.83;;;7.00;99.90;;;;;;5011865;28;20029;-69
2023/04/08 06:15:39;;;;;;;34.47;20.48;;;7.00;99.90;;;;;;5004901;28;20044;-68
2023/04/08 06:18:04;;;;;;;33.83;21.38;;;7.10;99.90;;;;;;5011722;28;20080;-70
2023/04/08 06:20:30;;;;;;;32.85;21.70;;;7.20;99.90;;;;;;5002284;28;20108;-69
2023/04/08 06:22:56;;;;;;;32.80;21.13;;;7.30;99.90;;;;;;5006265;28;20081;-69
2023/04/08 06:25:22;;;;;;;33.83;22.05;;;7.20;99.90;;;;;;5003675;28;20487;-75
2023/04/08 06:27:47;;;;;;;34.65;20.77;;;7.20;99.90;;;;;;5011964;28;20129;-70
2023/04/08 06:30:13;;;;;;;35.00;22.10;;;7.20;99.90;;;;;;4995715;28;20030;-73
2023/04/08 06:32:38;;;;;;;29.15;19.88;;;7.20;99.90;;;;;;5003060;28;20030;-73
2023/04/08 06:35:04;;;;;;;29.55;19.15;;;7.30;99.90;;;;;;4987246;28;20471;-72
2023/04/08 06:37:30;;;;;;;34.40;18.85;;;7.40;99.90;;;;;;4992323;28;20631;-73
2023/04/08 06:39:56;;;;;;;29.63;19.45;;;7.40;99.90;;;;;;4993091;28;20038;-73
2023/04/08 06:42:21;;;;;;;30.00;19.42;;;7.50;99.90;;;;;;5009380;28;20117;-70
2023/04/08 06:44:47;;;;;;;28.05;19.13;;;7.50;99.90;;;;;;5002285;28;20038;-69
2023/04/08 06:47:12;;;;;;;28.50;18.90;;;7.60;99.90;;;;;;5010269;28;20037;-69
2023/04/08 06:49:38;;;;;;;26.55;18.42;;;7.70;99.90;;;;;;4991792;28;20081;-71
2023/04/08 06:52:05;;;;;;;23.50;17.58;;;7.70;99.90;;;;;;4997542;28;20026;-72
2023/04/08 06:54:31;;;;;;;25.88;17.42;;;7.80;99.90;;;;;;4998265;28;20433;-70
2023/04/08 06:56:56;;;;;;;26.95;18.70;;;7.80;99.90;;;;;;5005763;28;20068;-73
2023/04/08 06:59:22;;;;;;;28.38;18.30;;;7.80;99.90;;;;;;5005109;28;20141;-71
2023/04/08 07:01:48;;;;;;;31.13;19.65;;;7.80;99.90;;;;;;4995330;28;20025;-72
2023/04/08 07:04:13;;;;;;;26.40;18.00;;;7.70;99.90;;;;;;5007205;28;20100;-72
2023/04/08 07:06:39;;;;;;;27.23;17.63;;;7.80;99.90;;;;;;4991122;28;20073;-69
2023/04/08 07:09:04;;;;;;;25.90;17.75;;;7.80;99.90;;;;;;5010101;28;20036;-70
2023/04/08 07:11:30;;;;;;;24.17;16.08;;;8.00;99.90;;;;;;4986163;28;20040;-68
2023/04/08 07:13:56;;;;;;;25.27;17.95;;;8.00;99.90;;;;;;5002288;28;20444;-71
2023/04/08 07:16:21;;;;;;;24.70;16.50;;;8.00;99.90;;;;;;4977814;28;20460;-73
2023/04/08 07:18:47;;;;;;;25.65;16.90;;;8.20;99.90;;;;;;4997449;28;20038;-73
2023/04/08 07:21:12;;;;;;;25.83;17.38;;;8.20;99.90;;;;;;5010913;28;20454;-71
2023/04/08 07:23:38;;;;;;;26.35;17.88;;;8.30;99.90;;;;;;5003704;28;20400;-69
2023/04/08 07:26:06;;;;;;;24.35;16.52;;;8.40;99.90;;;;;;5001035;28;20038;-70
2023/04/08 07:28:32;;;;;;;25.50;16.83;;;8.40;99.90;;;;;;4999726;28;20424;-69
2023/04/08 07:31:18;;;;;;;26.27;17.02;;;8.50;99.90;;;;;;5001089;28;20105;-70
2023/04/08 07:33:44;;;;;;;22.58;15.57;;;8.50;99.90;;;;;;5010295;28;20038;-70
2023/04/08 07:36:11;;;;;;;20.83;15.57;;;8.60;99.90;;;;;;5011553;28;20030;-69
2023/04/08 07:38:38;;;;;;;19.65;13.88;;;8.70;99.90;;;;;;5010396;28;20088;-69
2023/04/08 07:41:03;;;;;;;18.65;13.27;;;8.80;99.90;;;;;;4981743;28;20069;-70
2023/04/08 07:43:38;;;;;;;18.40;13.40;;;9.00;99.90;;;;;;5005052;28;20035;-70
2023/04/08 07:46:05;;;;;;;20.75;12.98;;;9.10;99.90;;;;;;5007702;28;20054;-71
2023/04/08 07:48:31;;;;;;;17.48;12.88;;;9.30;99.90;;;;;;4991628;28;20041;-71
2023/04/08 07:50:57;;;;;;;19.40;12.95;;;9.50;99.90;;;;;;5010571;28;20084;-72
2023/04/08 07:53:25;;;;;;;16.35;11.85;;;9.50;99.90;;;;;;5009025;28;20867;-72
2023/04/08 07:55:51;;;;;;;19.35;14.35;;;9.60;99.90;;;;;;5009794;28;20113;-71
2023/04/08 07:58:16;;;;;;;17.77;13.23;;;9.70;99.90;;;;;;5000273;28;20117;-71
2023/04/08 08:00:42;;;;;;;17.40;12.50;;;9.70;99.90;;;;;;5010620;28;20030;-69
2023/04/08 08:03:07;;;;;;;18.10;13.25;;;9.70;99.90;;;;;;5001057;28;20037;-69
2023/04/08 08:05:35;;;;;;;16.65;11.82;;;9.70;99.90;;;;;;4998260;28;20026;-69
2023/04/08 08:08:00;;;;;;;18.13;12.75;;;9.90;99.90;;;;;;5002610;28;20030;-72
2023/04/08 08:10:26;;;;;;;17.23;12.65;;;10.00;99.90;;;;;;5009807;28;20552;-71
2023/04/08 08:12:52;;;;;;;17.58;13.15;;;10.10;99.90;;;;;;5002668;28;20034;-71
2023/04/08 08:15:17;;;;;;;15.35;11.90;;;10.20;99.90;;;;;;5012798;28;20478;-72
2023/04/08 08:17:43;;;;;;;15.13;11.90;;;10.40;99.90;;;;;;5012444;28;20038;-71
2023/04/08 08:20:09;;;;;;;16.27;12.00;;;10.40;99.90;;;;;;5012439;28;20029;-72
2023/04/08 08:22:35;;;;;;;15.85;12.20;;;10.40;99.90;;;;;;4990986;28;20037;-74
2023/04/08 08:25:00;;;;;;;15.98;12.15;;;10.40;99.90;;;;;;5002267;28;20030;-71
2023/04/08 08:27:26;;;;;;;21.23;13.48;;;10.40;99.90;;;;;;5014194;28;20048;-69
2023/04/08 08:29:51;;;;;;;19.77;13.77;;;10.30;99.90;;;;;;5013624;28;20026;-69
2023/04/08 08:32:18;;;;;;;16.50;12.40;;;10.20;99.90;;;;;;5013938;28;20105;-69
2023/04/08 08:34:43;;;;;;;15.65;13.00;;;10.10;99.90;;;;;;5013292;28;20483;-72
2023/04/08 08:37:09;;;;;;;17.63;13.13;;;10.20;99.90;;;;;;5005921;28;20145;-72
2023/04/08 08:39:34;;;;;;;16.48;13.15;;;10.40;99.90;;;;;;5004961;28;20033;-74
2023/04/08 08:42:00;;;;;;;17.75;12.75;;;10.50;99.90;;;;;;5013586;28;20446;-77
2023/04/08 08:44:26;;;;;;;16.00;12.63;;;10.50;99.90;;;;;;5014323;28;20496;-74
2023/04/08 08:46:52;;;;;;;17.77;13.50;;;10.60;99.90;;;;;;4984356;28;20026;-75
2023/04/08 08:49:18;;;;;;;16.95;12.82;;;10.70;99.90;;;;;;4993029;28;20072;-74
2023/04/08 08:51:48;;;;;;;15.60;12.50;;;10.80;99.90;;;;;;4994238;28;20116;-77
2023/04/08 08:54:14;;;;;;;15.93;13.07;;;10.80;99.90;;;;;;4999286;28;20908;-77
2023/04/08 08:56:42;;;;;;;16.33;13.05;;;10.90;99.90;;;;;;5005470;28;20046;-77
2023/04/08 08:59:08;;;;;;;19.20;13.10;;;11.00;99.90;;;;;;5000802;28;20394;-75
2023/04/08 09:01:37;;;;;;;16.17;12.82;;;11.00;99.90;;;;;;5007943;28;20060;-74
2023/04/08 09:04:18;;;;;;;16.60;12.25;;;11.20;99.90;;;;;;5013209;28;20033;-80
2023/04/08 09:06:49;;;;;;;16.05;12.60;;;11.50;99.90;;;;;;4993567;28;20092;-76
2023/04/08 09:09:16;;;;;;;14.13;11.90;;;11.50;99.90;;;;;;4993733;28;20053;-74
2023/04/08 09:11:46;;;;;;;19.60;13.25;;;;;;;;;;4996817;28;20499;-77
2023/04/08 09:14:18;;;;;;;15.73;12.50;;;;;;;;;;5012945;28;20030;-75
2023/04/08 09:16:44;;;;;;;17.25;13.10;;;;;;;;;;5005202;28;20084;-75
2023/04/08 09:19:11;;;;;;;14.90;12.20;;;;;;;;;;5013122;28;20049;-75
2023/04/08 09:21:37;;;;;;;15.48;12.60;;;11.90;99.90;;;;;;4994041;28;20486;-75
2023/04/08 09:24:03;;;;;;;14.73;11.93;;;;;;;;;;4992804;28;20030;-75
2023/04/08 09:26:29;;;;;;;15.48;11.93;;;11.90;99.90;;;;;;4992500;28;20029;-74
2023/04/08 09:29:01;;;;;;;14.88;12.07;;;11.90;99.90;;;;;;4987617;28;20027;-75
2023/04/08 09:31:29;;;;;;;15.38;12.05;;;11.90;99.90;;;;;;5011727;28;20022;-75
2023/04/08 09:33:56;;;;;;;18.35;11.98;;;12.00;99.90;;;;;;5013399;28;20030;-75
2023/04/08 09:36:23;;;;;;;16.08;13.10;;;12.10;99.90;;;;;;5012683;28;20029;-75
2023/04/08 09:38:48;;;;;;;14.98;11.75;;;12.30;99.90;;;;;;5005798;28;20026;-76
2023/04/08 09:41:16;;;;;;;15.10;12.63;;;12.40;99.90;;;;;;4994414;28;20042;-74
2023/04/08 09:43:49;;;;;;;15.68;12.20;;;12.20;99.90;;;;;;5012549;28;20029;-75
2023/04/08 09:46:19;;;;;;;15.15;12.63;;;12.10;99.90;;;;;;4988432;28;20540;-75
2023/04/08 09:48:50;;;;;;;14.25;11.63;;;12.20;99.90;;;;;;4992270;28;20054;-75
2023/04/08 09:51:18;;;;;;;14.10;11.32;;;12.40;99.90;;;;;;4992868;28;20030;-75
2023/04/08 09:53:55;;;;;;;15.63;11.38;;;12.60;99.90;;;;;;4992726;28;20113;-75
2023/04/08 09:56:21;;;;;;;18.13;12.45;;;13.00;99.90;;;;;;4992798;28;20027;-75
2023/04/08 09:59:08;;;;;;;15.05;12.00;;;13.00;99.90;;;;;;4992151;28;20762;-74
2023/04/08 10:01:39;;;;;;;14.68;12.13;;;12.70;99.90;;;;;;4983377;28;20030;-74
2023/04/08 10:04:14;;;;;;;18.20;12.38;;;12.80;99.90;;;;;;4989848;28;20034;-73
2023/04/08 10:06:40;;;;;;;14.05;11.77;;;12.90;99.90;;;;;;4991719;28;20045;-75
2023/04/08 10:09:07;;;;;;;16.42;11.80;;;13.10;99.90;;;;;;4992941;28;20266;-75
2023/04/08 10:11:33;;;;;;;16.38;11.35;;;13.30;99.90;;;;;;4991760;28;20026;-75
2023/04/08 10:13:59;;;;;;;14.77;12.43;;;13.60;99.30;;;;;;4993183;28;20022;-76
2023/04/08 10:16:26;;;;;;;15.60;12.27;;;13.60;98.90;;;;;;4992380;28;20097;-75
2023/04/08 10:18:54;;;;;;;16.35;12.55;;;13.40;99.50;;;;;;4982503;28;20030;-74
2023/04/08 10:21:46;;;;;;;15.45;12.07;;;13.20;99.30;;;;;;4983130;28;20030;-77
2023/04/08 10:24:12;;;;;;;13.10;11.63;;;13.10;99.00;;;;;;4974635;28;20035;-74
2023/04/08 10:26:44;;;;;;;15.00;11.68;;;13.10;99.70;;;;;;4978659;28;20053;-74
2023/04/08 10:29:16;;;;;;;16.48;12.18;;;13.00;99.40;;;;;;4984474;28;20030;-74
2023/04/08 10:31:46;;;;;;;13.38;10.93;;;12.90;98.40;;;;;;4981066;28;20022;-73
2023/04/08 10:34:26;;;;;;;15.55;11.70;;;12.70;98.10;;;;;;4977351;28;20026;-73
2023/04/08 10:36:54;;;;;;;17.50;11.90;;;12.60;97.80;;;;;;4977380;28;20050;-74
2023/04/08 10:39:20;;;;;;;16.10;12.07;;;12.50;97.70;;;;;;4972225;28;20507;-72
2023/04/08 10:41:47;;;;;;;14.90;11.82;;;12.30;97.90;;;;;;4986415;28;20485;-71
2023/04/08 10:44:20;;;;;;;12.98;11.35;;;12.20;98.30;;;;;;4983151;28;20036;-73
2023/04/08 10:46:47;;;;;;;14.43;11.45;;;12.10;98.40;;;;;;4989159;28;20038;-70
2023/04/08 10:49:14;;;;;;;15.35;11.82;;;12.00;98.40;;;;;;4982604;28;20026;-74
2023/04/08 10:51:41;;;;;;;16.67;12.35;;;12.00;98.30;;;;;;4979175;28;20031;-74
2023/04/08 10:54:15;;;;;;;17.20;11.98;;;11.90;98.60;;;;;;4976094;28;20149;-74
2023/04/08 10:56:48;;;;;;;15.02;11.10;;;11.90;98.20;;;;;;4985019;28;20093;-70
2023/04/08 10:59:15;;;;;;;14.43;11.60;;;11.80;98.40;;;;;;4984900;28;20026;-75
2023/04/08 11:01:43;;;;;;;15.00;11.93;;;11.80;98.60;;;;;;4990514;28;20053;-74
2023/04/08 11:04:14;;;;;;;15.35;11.70;;;11.70;98.70;;;;;;4975489;28;20027;-73
2023/04/08 11:06:41;;;;;;;;;;;11.70;98.80;;;;;;4971246;28;20034;-74
2023/04/08 11:09:07;;;;;;;16.02;11.20;;;11.70;98.50;;;;;;4977618;28;20285;-74
2023/04/08 11:11:33;;;;;;;16.23;10.68;;;11.80;96.80;;;;;;4990329;28;20030;-74
2023/04/08 11:14:00;;;;;;;16.83;11.25;;;11.90;96.60;;;;;;4984385;28;20093;-74
2023/04/08 11:16:26;;;;;;;17.38;11.15;;;11.90;96.00;;;;;;4971481;28;20030;-73
2023/04/08 11:18:53;;;;;;;14.18;10.43;;;11.80;96.00;;;;;;4976660;28;20036;-74
2023/04/08 11:21:19;;;;;;;14.55;10.95;;;11.80;96.20;;;;;;4970971;28;20022;-74
2023/04/08 11:23:48;;;;;;;15.02;11.52;;;11.90;96.20;;;;;;4971495;28;20045;-76
2023/04/08 11:26:14;;;;;;;17.27;10.15;;;11.80;96.20;;;;;;4971734;28;20086;-72
2023/04/08 11:28:40;;;;;;;14.95;10.98;;;11.80;95.60;;;;;;4976018;28;20647;-74
2023/04/08 11:31:07;;;;;;;16.40;10.30;;;11.80;95.50;;;;;;4991356;28;20027;-74
2023/04/08 11:33:34;;;;;;;10.88;9.18;;;11.90;95.30;;;;;;4989737;28;20117;-76
2023/04/08 11:36:03;;;;;;;17.45;10.90;;;11.90;95.40;;;;;;4990552;28;20467;-75
2023/04/08 11:38:28;;;;;;;15.35;10.52;;;11.80;95.20;;;;;;4985751;28;20088;-71
2023/04/08 11:40:55;;;;;;;13.68;9.90;;;11.80;95.70;;;;;;4991506;28;20054;-73
2023/04/08 11:43:22;;;;;;;14.15;10.73;;;11.80;96.40;;;;;;4992911;28;20035;-74
2023/04/08 11:45:47;;;;;;;12.43;10.25;;;11.80;96.30;;;;;;4992475;28;20382;-74
2023/04/08 11:48:15;;;;;;;16.33;10.75;;;11.80;97.20;;;;;;4996121;28;20065;-75
2023/04/08 11:50:41;;;;;;;15.45;10.77;;;11.80;96.70;;;;;;4994796;28;20384;-74
2023/04/08 11:53:21;;;;;;;14.57;10.60;;;11.80;96.40;;;;;;4990299;28;20030;-74
2023/04/08 11:55:47;;;;;;;13.13;10.30;;;11.60;96.70;;;;;;4994544;28;20885;-73
2023/04/08 11:58:13;;;;;;;12.20;10.27;;;11.60;96.90;;;;;;4995727;28;20053;-74
2023/04/08 12:00:39;;;;;;;16.42;11.40;;;11.50;97.20;;;;;;4994614;28;20021;-73
2023/04/08 12:03:06;;;;;;;14.00;10.95;;;11.50;97.10;;;;;;4995395;28;20030;-74
2023/04/08 12:05:32;;;;;;;13.05;10.05;;;11.50;97.30;;;;;;4994443;28;20022;-70
2023/04/08 12:07:57;;;;;;;15.77;11.23;;;11.50;97.80;;;;;;4992048;28;20038;-72
2023/04/08 12:10:26;;;;;;;14.25;10.93;;;11.50;97.70;;;;;;4976914;28;20035;-74
2023/04/08 12:12:51;;;;;;;14.68;10.65;;;11.50;97.90;;;;;;4994334;28;20463;-74
2023/04/08 12:15:17;;;;;;;14.18;10.82;;;11.40;98.30;;;;;;4995621;28;20072;-73
2023/04/08 12:17:43;;;;;;;14.18;10.23;;;11.40;98.50;;;;;;4994501;28;20039;-73
2023/04/08 12:20:10;;;;;;;16.08;11.35;;;11.40;98.50;;;;;;4995434;28;20022;-73
2023/04/08 12:22:36;;;;;;;13.18;10.80;;;11.40;98.40;;;;;;4994106;28;20057;-73
2023/04/08 12:25:02;;;;;;;16.63;13.00;;;11.50;98.60;;;;;;4995208;28;20105;-73
2023/04/08 12:27:29;;;;;;;15.93;10.90;;;11.60;98.70;;;;;;4990548;28;20045;-72
2023/04/08 12:29:55;;;;;;;15.65;10.45;;;11.70;97.90;;;;;;4994861;28;20023;-73
2023/04/08 12:32:21;;;;;;;13.73;10.20;;;11.80;97.60;;;;;;4994739;28;20026;-73
2023/04/08 12:34:46;;;;;;;17.80;11.27;;;11.80;97.40;;;;;;4994252;28;20779;-74